Time;durP1;ratioP1;P1;durP2;ratioP2;P2;SDS_P1;SDS_P2;PMS_P1;PMS_P2;Temp;Humidity;BMP_temperature;BMP_pressure;BME280_temperature;BME280_humidity;BME280_pressure;Samples;Min_cycle;Max_cycle;Signal;HPM_P1;HPM_P2
2023/07/24 00:01:07;;;;;;;8.80;7.07;;;23.00;78.40;;;23.57;53.82;95188.63;5075451;28;20474;-60
2023/07/24 00:03:36;;;;;;;7.93;6.80;;;23.00;78.40;;;23.54;54.38;95183.69;5080245;28;20481;-59
2023/07/24 00:06:04;;;;;;;10.50;7.47;;;22.90;78.40;;;23.51;54.12;95176.06;5074455;28;20474;-61
2023/07/24 00:08:31;;;;;;;9.80;7.30;;;22.90;78.60;;;23.47;54.01;95180.22;5078927;28;20457;-59
2023/07/24 00:10:58;;;;;;;8.00;6.97;;;22.90;78.60;;;23.43;54.00;95187.06;5071255;28;20762;-61
2023/07/24 00:13:25;;;;;;;9.10;7.23;;;22.90;79.00;;;23.40;54.88;95180.25;5078045;28;20492;-62
2023/07/24 00:15:53;;;;;;;9.70;7.70;;;22.80;79.10;;;23.38;54.81;95192.25;5069570;28;20474;-62
2023/07/24 00:18:20;;;;;;;10.60;8.20;;;22.80;79.50;;;23.35;54.42;95190.00;5077555;28;20527;-59
2023/07/24 00:20:49;;;;;;;11.33;8.40;;;22.80;79.60;;;23.34;54.57;95188.31;5073453;28;20558;-63
2023/07/24 00:23:16;;;;;;;12.73;8.10;;;22.70;79.70;;;23.32;55.23;95188.53;5076571;28;20968;-62
2023/07/24 00:25:43;;;;;;;11.47;7.63;;;22.70;79.90;;;23.31;55.01;95178.00;5083169;28;20532;-59
2023/07/24 00:28:10;;;;;;;9.83;7.87;;;22.70;80.20;;;23.29;54.82;95183.59;5078038;28;21343;-59
2023/07/24 00:30:37;;;;;;;14.17;9.23;;;22.70;80.50;;;23.28;55.51;95184.63;5080133;28;20470;-59
2023/07/24 00:33:05;;;;;;;12.37;7.67;;;22.70;80.50;;;23.26;54.77;95182.16;5079040;28;20558;-62
2023/07/24 00:35:32;;;;;;;12.90;7.97;;;22.70;80.50;;;23.25;55.58;95185.88;5077341;28;20468;-60
2023/07/24 00:38:00;;;;;;;14.47;8.30;;;22.60;80.70;;;23.23;55.95;95182.56;5080503;28;20469;-62
2023/07/24 00:40:28;;;;;;;11.80;7.27;;;22.60;81.00;;;23.22;55.74;95186.31;5076765;28;20539;-61
2023/07/24 00:42:55;;;;;;;12.20;8.00;;;22.60;81.10;;;23.21;55.93;95179.28;5079863;28;20962;-58
2023/07/24 00:45:23;;;;;;;10.63;7.87;;;22.60;81.40;;;23.20;55.80;95183.00;5075884;28;20936;-59
2023/07/24 00:47:50;;;;;;;10.43;8.37;;;22.60;81.40;;;23.19;55.74;95172.47;5078397;28;20451;-64
2023/07/24 00:50:17;;;;;;;11.23;8.93;;;22.60;81.70;;;23.18;55.95;95174.34;5078582;28;20520;-62
2023/07/24 00:52:45;;;;;;;13.00;8.50;;;22.60;82.10;;;23.14;55.97;95181.16;5074364;28;20490;-59
2023/07/24 00:55:13;;;;;;;11.40;8.80;;;22.60;82.10;;;23.10;55.59;95182.63;5079681;28;20979;-63
2023/07/24 00:57:41;;;;;;;12.77;8.30;;;22.50;81.90;;;23.06;55.66;95184.84;5075047;28;20516;-60
2023/07/24 01:00:10;;;;;;;11.60;7.90;;;22.50;82.20;;;23.05;56.37;95182.38;5081478;28;20551;-58
2023/07/24 01:02:37;;;;;;;13.73;9.00;;;22.50;82.50;;;23.02;56.49;95170.22;5074846;28;20493;-62
2023/07/24 01:05:05;;;;;;;12.13;7.90;;;22.40;82.30;;;23.02;55.82;95169.38;5080377;28;20543;-61
2023/07/24 01:07:33;;;;;;;10.93;8.73;;;22.40;82.30;;;23.01;55.89;95170.44;5076593;28;20528;-59
2023/07/24 01:10:00;;;;;;;10.20;8.10;;;22.40;82.30;;;23.00;55.86;95174.13;5079314;28;20469;-59
2023/07/24 01:12:33;;;;;;;11.97;9.20;;;22.40;82.70;;;22.98;56.43;95171.66;5078561;28;21445;-62
2023/07/24 01:15:06;;;;;;;10.47;8.47;;;22.40;83.00;;;22.96;56.25;95170.22;5075734;28;20469;-63
2023/07/24 01:17:34;;;;;;;9.93;8.27;;;22.30;82.90;;;22.94;56.58;95162.38;5074349;28;20458;-61
2023/07/24 01:20:02;;;;;;;10.30;8.13;;;22.30;83.10;;;22.90;56.28;95156.63;5076795;28;20495;-61
2023/07/24 01:22:36;;;;;;;19.70;9.13;;;22.30;83.00;;;22.85;56.65;95155.59;5076134;28;20462;-60
2023/07/24 01:25:09;;;;;;;9.23;7.83;;;22.30;83.00;;;22.76;56.58;95149.66;5071779;28;20478;-61
2023/07/24 01:27:42;;;;;;;14.37;8.33;;;22.20;83.00;;;22.67;56.49;95151.72;5075273;28;20442;-59
2023/07/24 01:30:11;;;;;;;15.10;8.90;;;22.10;83.50;;;22.60;56.42;95150.88;5076484;28;21219;-60
2023/07/24 01:32:38;;;;;;;9.53;8.50;;;22.10;83.80;;;22.55;56.50;95156.06;5073925;28;21080;-61
2023/07/24 01:35:07;;;;;;;10.80;8.50;;;22.00;83.90;;;22.51;57.03;95168.22;5073521;28;20893;-60
2023/07/24 01:37:35;;;;;;;13.23;8.70;;;21.90;84.30;;;22.48;57.32;95185.56;5078809;28;20523;-59
2023/07/24 01:40:02;;;;;;;11.70;8.63;;;21.90;85.00;;;22.48;57.67;95185.56;5074512;28;20478;-58
2023/07/24 01:42:29;;;;;;;11.50;7.70;;;21.90;85.30;;;22.48;58.02;95177.50;5081719;28;20867;-60
2023/07/24 01:44:58;;;;;;;14.07;8.83;;;21.90;86.00;;;22.46;57.70;95168.81;5073332;28;20466;-63
2023/07/24 01:47:25;;;;;;;12.53;8.60;;;21.90;85.80;;;22.46;57.43;95168.81;5081396;28;20446;-64
2023/07/24 01:49:53;;;;;;;11.33;8.47;;;21.90;85.90;;;22.42;57.76;95172.97;5072721;28;20508;-60
2023/07/24 01:52:21;;;;;;;11.53;8.80;;;21.80;85.80;;;22.38;57.70;95177.94;5078668;28;20455;-62
2023/07/24 01:54:48;;;;;;;10.63;8.13;;;21.80;85.70;;;22.34;57.39;95174.00;5070888;28;20439;-62
2023/07/24 01:57:16;;;;;;;10.67;8.53;;;21.80;86.00;;;22.31;57.26;95168.25;5081096;28;20461;-60
2023/07/24 01:59:43;;;;;;;11.57;8.10;;;21.70;85.90;;;22.25;57.90;95177.06;5081178;28;20498;-60
2023/07/24 02:02:12;;;;;;;15.30;8.50;;;21.70;85.90;;;22.18;58.02;95174.38;5075223;28;21023;-62
2023/07/24 02:04:39;;;;;;;10.70;8.17;;;21.70;85.90;;;22.11;57.69;95169.00;5073918;28;20542;-59
2023/07/24 02:07:07;;;;;;;11.23;7.80;;;21.60;86.10;;;22.05;58.14;95180.53;5072423;28;20454;-59
2023/07/24 02:09:34;;;;;;;9.83;8.10;;;21.50;87.30;;;22.05;58.43;95174.38;5073875;28;20451;-61
2023/07/24 02:12:02;;;;;;;18.07;8.63;;;21.50;87.20;;;22.05;57.90;95174.38;5073605;28;20454;-62
2023/07/24 02:14:29;;;;;;;11.50;8.23;;;21.50;87.20;;;22.04;57.83;95178.88;5075033;28;20485;-62
2023/07/24 02:16:56;;;;;;;9.07;8.17;;;21.50;87.40;;;22.05;58.16;95172.50;5074341;28;20467;-61
2023/07/24 02:19:25;;;;;;;9.77;8.00;;;21.50;87.70;;;22.06;57.96;95170.63;5073150;28;20920;-63
2023/07/24 02:21:52;;;;;;;10.30;8.50;;;21.50;87.70;;;22.06;58.26;95166.13;5075480;28;21004;-60
2023/07/24 02:24:19;;;;;;;10.47;7.70;;;21.50;87.70;;;22.06;58.08;95166.13;5076632;28;20453;-59
2023/07/24 02:26:47;;;;;;;10.30;8.70;;;21.50;87.70;;;22.08;58.25;95173.97;5075278;28;20471;-63
2023/07/24 02:29:14;;;;;;;25.73;8.63;;;21.50;87.80;;;22.08;58.20;95160.56;5080406;28;20450;-59
2023/07/24 02:31:41;;;;;;;11.83;8.53;;;21.50;87.70;;;22.09;58.35;95167.56;5072553;28;20475;-59
2023/07/24 02:34:08;;;;;;;11.73;7.93;;;21.50;87.90;;;22.09;58.12;95162.19;5079027;28;20493;-59
2023/07/24 02:36:37;;;;;;;12.37;7.23;;;21.50;87.80;;;22.08;58.23;95166.72;5073870;28;20481;-59
2023/07/24 02:39:05;;;;;;;22.73;8.60;;;21.50;87.70;;;22.09;57.64;95160.34;5079572;28;20966;-60
2023/07/24 02:41:32;;;;;;;10.83;7.23;;;21.50;87.70;;;22.08;57.99;95172.09;5073707;28;20471;-62
2023/07/24 02:43:59;;;;;;;9.83;7.73;;;21.50;87.70;;;22.04;58.07;95162.81;5078908;28;20814;-62
2023/07/24 02:46:26;;;;;;;13.77;7.70;;;21.50;87.70;;;22.01;57.94;95166.72;5072916;28;20470;-60
2023/07/24 02:48:54;;;;;;;11.67;7.80;;;21.50;88.10;;;22.00;57.99;95161.59;5077968;28;20511;-63
2023/07/24 02:51:22;;;;;;;11.37;8.00;;;21.40;88.50;;;21.98;57.70;95156.44;5076116;28;21003;-59
2023/07/24 02:53:50;;;;;;;11.90;7.70;;;21.40;88.40;;;21.96;58.33;95163.81;5073887;28;20566;-59
2023/07/24 02:56:17;;;;;;;11.33;7.83;;;21.40;88.10;;;21.96;58.24;95161.16;5075352;28;20462;-62
2023/07/24 02:58:45;;;;;;;11.47;7.07;;;21.40;88.20;;;21.93;58.24;95161.56;5075803;28;20450;-59
2023/07/24 03:01:14;;;;;;;11.57;8.40;;;21.40;88.30;;;21.90;58.05;95159.28;5074610;28;20479;-62
2023/07/24 03:03:41;;;;;;;9.80;8.20;;;21.40;88.80;;;21.85;58.04;95165.25;5073863;28;20451;-62
2023/07/24 03:06:08;;;;;;;11.53;8.40;;;21.30;88.70;;;21.83;58.57;95164.63;5070023;28;20467;-65
2023/07/24 03:08:35;;;;;;;11.47;7.60;;;21.30;89.20;;;21.84;58.30;95168.97;5077362;28;20508;-59
2023/07/24 03:11:06;;;;;;;11.33;8.73;;;21.30;89.40;;;21.86;58.50;95171.44;5072948;28;20832;-61
2023/07/24 03:13:33;;;;;;;10.80;8.73;;;21.30;89.60;;;21.87;58.59;95173.06;5075122;28;20478;-61
2023/07/24 03:16:00;;;;;;;14.00;8.60;;;21.30;89.70;;;21.87;58.54;95173.06;5069603;28;20479;-62
2023/07/24 03:18:27;;;;;;;13.77;7.77;;;21.30;89.70;;;21.88;58.92;95165.88;5075642;28;20454;-60
2023/07/24 03:20:55;;;;;;;13.40;7.33;;;21.30;89.90;;;21.88;58.80;95168.56;5072814;28;20481;-63
2023/07/24 03:23:22;;;;;;;21.53;8.30;;;21.30;90.10;;;21.89;58.39;95165.69;5069126;28;20458;-60
2023/07/24 03:25:49;;;;;;;18.87;7.57;;;21.30;90.00;;;21.94;58.52;95167.75;5071724;28;20461;-61
2023/07/24 03:28:18;;;;;;;11.23;8.07;;;21.40;90.30;;;21.96;58.31;95177.22;5067230;28;20516;-60
2023/07/24 03:30:46;;;;;;;10.30;7.60;;;21.40;90.20;;;21.99;58.84;95165.28;5069993;28;20474;-59
2023/07/24 03:33:13;;;;;;;7.40;6.60;;;21.40;90.10;;;22.00;58.93;95167.75;5068346;28;20447;-60
2023/07/24 03:35:40;;;;;;;7.83;6.83;;;21.40;90.20;;;22.01;58.24;95164.06;5067415;28;20462;-62
2023/07/24 03:38:07;;;;;;;12.23;7.63;;;21.40;90.00;;;22.01;58.48;95171.25;5068088;28;20451;-61
2023/07/24 03:40:35;;;;;;;8.97;7.50;;;21.40;90.10;;;21.99;57.91;95173.31;5066226;28;20582;-61
2023/07/24 03:43:02;;;;;;;13.00;8.03;;;21.40;90.00;;;22.01;58.91;95176.59;5069018;28;20454;-61
2023/07/24 03:45:32;;;;;;;8.93;8.03;;;21.40;90.30;;;22.03;58.31;95169.22;5067560;28;20512;-62
2023/07/24 03:47:59;;;;;;;14.33;8.23;;;21.40;90.20;;;22.06;58.42;95178.69;5067343;28;20959;-59
2023/07/24 03:50:26;;;;;;;14.60;8.67;;;21.50;90.40;;;22.06;58.89;95171.47;5066569;28;20544;-63
2023/07/24 03:52:53;;;;;;;13.20;7.97;;;21.50;90.30;;;22.06;58.73;95171.47;5068301;28;21024;-60
2023/07/24 03:55:21;;;;;;;9.83;8.17;;;21.50;90.50;;;22.05;58.52;95169.81;5074841;28;20501;-60
2023/07/24 03:57:48;;;;;;;11.63;8.07;;;21.50;90.40;;;22.07;58.40;95173.09;5071065;28;20447;-59
2023/07/24 04:00:16;;;;;;;9.97;7.77;;;21.50;90.40;;;22.09;58.58;95173.75;5069344;28;20832;-60
2023/07/24 04:02:44;;;;;;;13.17;7.40;;;21.50;90.30;;;22.11;58.51;95170.88;5068897;28;20900;-61
2023/07/24 04:05:12;;;;;;;9.40;7.53;;;21.50;90.30;;;22.09;58.26;95168.41;5072287;28;20471;-60
2023/07/24 04:07:39;;;;;;;11.20;7.87;;;21.50;90.10;;;22.09;58.32;95175.59;5071582;28;20455;-60
2023/07/24 04:10:08;;;;;;;13.10;8.07;;;21.50;90.20;;;22.08;58.30;95169.41;5070385;28;20497;-59
2023/07/24 04:12:35;;;;;;;14.77;7.80;;;21.50;90.20;;;22.05;58.36;95177.84;5073627;28;20458;-62
2023/07/24 04:15:03;;;;;;;10.37;7.30;;;21.50;90.40;;;22.02;58.21;95178.25;5072262;28;20792;-63
2023/07/24 04:17:30;;;;;;;13.13;8.17;;;21.40;90.50;;;21.99;58.71;95184.03;5078154;28;20462;-63
2023/07/24 04:20:00;;;;;;;14.10;8.77;;;21.40;90.20;;;21.98;58.29;95187.72;5073562;28;20466;-58
2023/07/24 04:22:27;;;;;;;12.80;8.07;;;21.40;90.30;;;21.97;58.53;95188.78;5076042;28;20943;-62
2023/07/24 04:24:54;;;;;;;14.57;7.80;;;21.40;90.60;;;21.97;58.69;95183.41;5080423;28;20449;-60
2023/07/24 04:27:21;;;;;;;11.23;8.03;;;21.40;90.80;;;22.03;58.52;95194.13;5074792;28;20899;-65
2023/07/24 04:29:49;;;;;;;17.33;8.20;;;21.50;90.60;;;22.08;58.57;95188.16;5077701;28;20538;-60
2023/07/24 04:32:16;;;;;;;20.93;8.80;;;21.50;90.80;;;22.14;59.04;95191.91;5073062;28;20520;-62
2023/07/24 04:34:43;;;;;;;12.50;8.77;;;21.60;91.10;;;22.22;58.71;95190.88;5077781;28;20483;-62
2023/07/24 04:37:12;;;;;;;15.67;8.73;;;21.60;90.90;;;22.29;58.76;95192.53;5080390;28;20446;-61
2023/07/24 04:39:40;;;;;;;12.13;8.50;;;21.70;91.10;;;22.36;58.94;95189.88;5075534;28;20451;-64
2023/07/24 04:42:07;;;;;;;14.07;8.80;;;21.70;90.80;;;22.38;58.82;95196.69;5079492;28;20454;-62
2023/07/24 04:44:34;;;;;;;25.37;10.00;;;21.80;90.70;;;22.39;58.47;95194.81;5077939;28;21120;-62
2023/07/24 04:47:02;;;;;;;14.73;9.03;;;21.80;90.50;;;22.40;58.08;95192.97;5077284;28;20531;-63
2023/07/24 04:49:30;;;;;;;19.73;9.53;;;21.80;90.60;;;22.43;58.37;95198.72;5077699;28;20447;-60
2023/07/24 04:51:57;;;;;;;30.67;10.50;;;21.80;90.60;;;22.47;58.28;95199.97;5077394;28;20508;-63
2023/07/24 04:54:26;;;;;;;19.30;10.23;;;21.90;90.80;;;22.50;58.45;95194.19;5077241;28;21028;-61
2023/07/24 04:56:53;;;;;;;13.23;10.20;;;21.90;90.60;;;22.54;58.42;95194.59;5079132;28;20470;-59
2023/07/24 04:59:20;;;;;;;10.93;9.30;;;22.00;90.70;;;22.58;58.35;95192.34;5079249;28;20450;-64
2023/07/24 05:01:48;;;;;;;16.53;10.63;;;22.00;90.70;;;22.59;58.18;95192.16;5079374;28;20854;-62
2023/07/24 05:04:15;;;;;;;14.87;9.40;;;22.00;90.80;;;22.61;58.79;95197.31;5071882;28;20504;-63
2023/07/24 05:06:42;;;;;;;17.50;10.20;;;22.00;90.90;;;22.64;58.13;95199.56;5079121;28;20851;-59
2023/07/24 05:09:09;;;;;;;19.37;10.03;;;22.00;90.80;;;22.67;58.63;95199.97;5074936;28;20458;-60
2023/07/24 05:11:38;;;;;;;18.10;11.00;;;22.10;91.10;;;22.74;58.50;95199.97;5082494;28;20608;-62
2023/07/24 05:14:05;;;;;;;17.87;11.63;;;22.20;91.10;;;22.79;58.31;95202.88;5071953;28;20942;-61
2023/07/24 05:16:32;;;;;;;19.43;11.07;;;22.20;91.10;;;22.85;58.46;95195.81;5078688;28;20477;-59
2023/07/24 05:19:00;;;;;;;21.03;10.70;;;22.30;91.10;;;22.91;58.48;95203.03;5078986;28;20455;-62
2023/07/24 05:21:27;;;;;;;14.67;10.30;;;22.30;91.00;;;22.99;58.75;95200.16;5072246;28;20534;-62
2023/07/24 05:23:54;;;;;;;15.50;10.50;;;22.40;91.10;;;23.07;58.45;95188.38;5075471;28;20451;-63
2023/07/24 05:26:22;;;;;;;24.83;11.13;;;22.50;90.80;;;23.17;58.23;95194.16;5080050;28;20528;-63
2023/07/24 05:28:52;;;;;;;22.43;11.57;;;22.60;90.80;;;23.28;57.90;95190.00;5074853;28;20456;-62
2023/07/24 05:31:19;;;;;;;19.30;10.17;;;22.60;90.60;;;23.44;57.90;95188.72;5077315;28;20724;-60
2023/07/24 05:33:47;;;;;;;18.77;11.97;;;22.80;90.60;;;23.60;57.19;95182.03;5075620;28;20519;-63
2023/07/24 05:36:14;;;;;;;24.20;10.73;;;22.90;90.50;;;23.78;57.34;95190.22;5077112;28;20480;-59
2023/07/24 05:38:41;;;;;;;26.90;11.57;;;23.10;90.30;;;23.97;56.62;95191.16;5075750;28;20447;-62
2023/07/24 05:41:08;;;;;;;17.23;11.00;;;23.30;89.90;;;24.13;56.59;95181.75;5076213;28;20558;-62
2023/07/24 05:43:36;;;;;;;15.70;11.10;;;23.40;89.10;;;24.27;56.00;95179.78;5074492;28;20563;-64
2023/07/24 05:46:04;;;;;;;22.33;13.77;;;23.60;88.20;;;24.40;55.02;95180.75;5079094;28;20481;-63
2023/07/24 05:48:32;;;;;;;25.90;11.53;;;23.70;87.50;;;24.52;55.10;95176.31;5075337;28;20446;-63
2023/07/24 05:50:59;;;;;;;24.03;13.20;;;23.80;87.00;;;24.62;54.70;95176.66;5076154;28;20469;-62
2023/07/24 05:53:26;;;;;;;15.50;11.43;;;23.90;86.10;;;24.73;54.33;95177.00;5075080;28;20959;-62
2023/07/24 05:56:00;;;;;;;18.73;11.87;;;24.00;86.20;;;24.96;54.65;95174.50;5080723;28;20573;-58
2023/07/24 05:58:28;;;;;;;22.93;12.00;;;24.20;86.20;;;25.18;54.37;95180.25;5071879;28;20466;-60
2023/07/24 06:00:55;;;;;;;25.43;11.40;;;24.40;85.90;;;25.39;53.77;95168.28;5079587;28;20477;-63
2023/07/24 06:03:24;;;;;;;21.53;11.20;;;24.60;85.40;;;25.65;53.60;95168.97;5071496;28;20898;-60
2023/07/24 06:05:54;;;;;;;19.47;12.07;;;24.80;84.90;;;25.92;52.99;95171.34;5077011;28;20461;-60
2023/07/24 06:08:22;;;;;;;28.73;10.80;;;25.10;84.30;;;26.16;52.17;95166.03;5076877;28;20503;-64
2023/07/24 06:10:49;;;;;;;14.67;10.43;;;25.40;83.20;;;26.35;52.00;95164.91;5074405;28;21006;-63
2023/07/24 06:13:16;;;;;;;24.47;11.33;;;25.60;82.70;;;26.54;51.84;95173.75;5076663;28;20546;-63
2023/07/24 06:15:44;;;;;;;21.33;10.97;;;25.70;82.00;;;26.75;51.44;95180.47;5077335;28;20498;-60
2023/07/24 06:18:11;;;;;;;28.63;11.93;;;25.90;81.40;;;26.96;51.06;95175.56;5076905;28;20913;-60
2023/07/24 06:20:39;;;;;;;24.70;11.70;;;26.10;80.60;;;27.16;50.90;95175.19;5069940;28;20462;-61
2023/07/24 06:23:07;;;;;;;20.20;11.00;;;26.40;79.70;;;27.35;50.13;95173.19;5078672;28;20454;-60
2023/07/24 06:25:34;;;;;;;20.67;10.63;;;26.50;79.70;;;27.55;49.95;95162.81;5076298;28;20888;-60
2023/07/24 06:28:01;;;;;;;18.60;11.63;;;26.70;78.70;;;27.76;49.62;95165.09;5073592;28;20435;-64
2023/07/24 06:30:28;;;;;;;21.40;12.33;;;26.90;77.90;;;27.95;49.21;95163.88;5073780;28;20995;-60
2023/07/24 06:32:56;;;;;;;20.30;12.43;;;27.10;77.20;;;28.13;48.44;95162.03;5077408;28;20862;-59
2023/07/24 06:35:23;;;;;;;27.83;12.30;;;27.30;76.70;;;28.30;48.49;95162.88;5075097;28;20498;-63
2023/07/24 06:37:51;;;;;;;30.67;12.00;;;27.50;76.10;;;28.48;47.92;95169.13;5078135;28;20454;-63
2023/07/24 06:40:19;;;;;;;26.00;12.93;;;27.60;75.70;;;28.65;48.04;95164.56;5075346;28;20470;-64
2023/07/24 06:42:46;;;;;;;29.43;12.50;;;27.80;75.10;;;28.82;47.56;95163.75;5076480;28;20570;-62
2023/07/24 06:45:13;;;;;;;28.37;10.80;;;28.00;74.60;;;28.96;47.37;95168.56;5077540;28;20474;-63
2023/07/24 06:47:41;;;;;;;32.53;13.80;;;28.10;74.50;;;29.11;46.71;95161.72;5074672;28;20451;-64
2023/07/24 06:50:09;;;;;;;29.33;13.17;;;28.30;73.60;;;29.22;46.94;95163.53;5076577;28;20223;-58
2023/07/24 06:52:36;;;;;;;30.33;12.90;;;28.40;72.70;;;29.31;46.21;95170.19;5076952;28;20215;-59
2023/07/24 06:55:06;;;;;;;39.03;13.57;;;28.50;72.00;;;29.44;46.02;95173.59;5075702;28;20732;-61
2023/07/24 06:57:33;;;;;;;27.13;13.13;;;28.60;72.10;;;29.58;45.77;95176.75;5073136;28;20204;-59
2023/07/24 07:00:01;;;;;;;25.60;12.10;;;28.70;71.50;;;29.72;45.35;95169.06;5078841;28;20854;-60
2023/07/24 07:02:28;;;;;;;20.50;12.17;;;28.90;70.60;;;29.84;45.80;95170.56;5072206;28;20196;-61
2023/07/24 07:04:55;;;;;;;28.53;14.30;;;29.00;70.30;;;29.88;44.73;95168.16;5073151;28;20223;-63
2023/07/24 07:07:22;;;;;;;35.30;14.50;;;29.00;69.30;;;29.81;44.34;95162.13;5073451;28;20269;-62
2023/07/24 07:09:50;;;;;;;21.07;12.20;;;29.00;68.40;;;29.73;45.14;95173.38;5080634;28;20199;-63
2023/07/24 07:12:18;;;;;;;38.43;14.43;;;28.90;68.40;;;29.71;45.30;95164.69;5075088;28;20216;-61
2023/07/24 07:14:46;;;;;;;28.03;13.27;;;28.90;69.00;;;29.78;45.07;95168.03;5073153;28;20300;-59
2023/07/24 07:17:13;;;;;;;23.67;12.17;;;28.90;69.10;;;29.96;45.00;95159.59;5072314;28;20204;-63
2023/07/24 07:19:40;;;;;;;24.53;12.40;;;29.10;69.30;;;30.19;45.26;95171.19;5069750;28;20204;-60
2023/07/24 07:22:08;;;;;;;21.17;12.40;;;29.20;68.60;;;30.42;44.03;95158.44;5070495;28;20265;-59
2023/07/24 07:24:35;;;;;;;20.00;12.07;;;29.50;68.80;;;30.66;44.46;95157.00;5077958;28;20260;-63
2023/07/24 07:27:02;;;;;;;24.03;13.37;;;29.70;68.40;;;30.84;43.68;95158.47;5070677;28;20860;-64
2023/07/24 07:29:31;;;;;;;22.23;12.97;;;29.90;67.20;;;30.97;43.02;95156.38;5079893;28;20203;-63
2023/07/24 07:31:58;;;;;;;19.33;12.80;;;30.00;66.50;;;31.07;43.11;95154.59;5079891;28;20226;-63
2023/07/24 07:34:26;;;;;;;24.47;12.60;;;30.20;66.20;;;31.21;42.83;95148.69;5080918;28;20596;-60
2023/07/24 07:36:53;;;;;;;28.40;14.23;;;30.30;66.40;;;31.27;41.80;95148.47;5079299;28;20219;-64
2023/07/24 07:39:20;;;;;;;29.13;13.00;;;30.40;65.00;;;31.33;42.35;95141.16;5083265;28;20260;-62
2023/07/24 07:41:47;;;;;;;23.98;13.35;;;30.50;64.60;;;31.37;41.87;95142.28;5077687;28;20765;-64
2023/07/24 07:44:15;;;;;;;25.60;11.80;;;30.60;63.90;;;31.45;41.46;95138.22;5083121;28;20423;-63
2023/07/24 07:46:43;;;;;;;18.92;12.07;;;30.60;63.80;;;31.63;41.64;95142.41;5076883;28;20220;-60
2023/07/24 07:49:11;;;;;;;22.40;11.13;;;30.80;63.50;;;31.73;41.24;95136.16;5082106;28;20199;-60
2023/07/24 07:51:38;;;;;;;21.15;11.35;;;30.90;62.90;;;31.79;40.73;95137.81;5078423;28;20224;-60
2023/07/24 07:54:05;;;;;;;13.65;11.07;;;30.90;62.20;;;31.91;41.01;95135.69;5081166;28;20393;-60
2023/07/24 07:56:32;;;;;;;19.60;11.35;;;31.00;62.10;;;32.04;40.60;95141.69;5077505;28;20232;-63
2023/07/24 07:59:00;;;;;;;17.35;10.00;;;31.10;61.80;;;32.12;40.62;95142.03;5081580;28;20214;-60
2023/07/24 08:01:27;;;;;;;19.52;9.77;;;31.20;61.10;;;32.15;40.30;95146.94;5080853;28;20610;-60
2023/07/24 08:03:55;;;;;;;20.48;11.65;;;31.30;61.10;;;32.32;40.11;95141.22;5077045;28;20199;-61
2023/07/24 08:06:24;;;;;;;21.80;11.52;;;31.40;61.20;;;32.63;39.96;95141.25;5080792;28;20223;-62
2023/07/24 08:08:51;;;;;;;18.92;10.73;;;31.60;61.10;;;32.97;39.74;95145.31;5077516;28;20212;-59
2023/07/24 08:11:18;;;;;;;19.08;10.02;;;32.00;60.70;;;33.30;39.57;95141.19;5080493;28;20731;-63
2023/07/24 08:13:45;;;;;;;15.35;10.77;;;32.30;60.20;;;33.62;38.43;95142.72;5078845;28;20205;-64
2023/07/24 08:16:18;;;;;;;20.00;10.48;;;32.60;59.50;;;33.92;38.71;95133.59;5076569;28;20239;-61
2023/07/24 08:18:46;;;;;;;20.48;11.38;;;32.90;58.90;;;34.17;38.38;95122.81;5074617;28;21060;-62
2023/07/24 08:21:15;;;;;;;24.33;11.77;;;33.20;58.40;;;34.36;37.26;95131.16;5074007;28;20302;-62
2023/07/24 08:23:42;;;;;;;16.00;10.80;;;33.40;57.20;;;34.38;37.12;95126.22;5073262;28;20200;-63
2023/07/24 08:26:10;;;;;;;23.58;12.60;;;33.60;56.80;;;34.33;37.11;95123.53;5076702;28;20220;-60
2023/07/24 08:28:37;;;;;;;16.05;12.13;;;33.50;56.40;;;34.24;37.06;95124.16;5077385;28;20691;-63
2023/07/24 08:31:04;;;;;;;15.27;10.80;;;33.40;56.90;;;34.32;37.75;95108.25;5076589;28;20234;-63
2023/07/24 08:33:31;;;;;;;17.42;10.13;;;33.40;56.60;;;34.56;36.34;95111.88;5074499;28;20258;-60
2023/07/24 08:36:04;;;;;;;18.23;10.60;;;33.60;56.70;;;34.89;36.54;95114.91;5083464;28;20623;-58
2023/07/24 08:38:32;;;;;;;16.50;11.77;;;33.80;56.30;;;35.24;35.69;95112.09;5074045;28;20245;-63
2023/07/24 08:41:04;;;;;;;17.48;11.27;;;34.20;55.50;;;35.56;35.88;95110.66;5081691;28;20223;-64
2023/07/24 08:43:31;;;;;;;22.30;12.88;;;34.60;55.00;;;35.76;35.22;95104.06;5074463;28;20204;-59
2023/07/24 08:45:59;;;;;;;27.13;13.73;;;34.80;54.80;;;35.98;34.77;95101.63;5080935;28;20223;-63
2023/07/24 08:48:27;;;;;;;33.15;12.80;;;35.00;53.90;;;36.14;34.58;95104.13;5077311;28;20299;-67
2023/07/24 08:50:55;;;;;;;21.33;11.20;;;35.20;53.80;;;36.34;34.87;95106.56;5080153;28;20314;-62
2023/07/24 08:53:22;;;;;;;18.58;11.93;;;35.40;53.80;;;36.58;34.38;95100.19;5076690;28;20200;-60
2023/07/24 08:55:50;;;;;;;17.05;11.95;;;35.60;52.90;;;36.84;33.54;95102.50;5077272;28;20300;-59
2023/07/24 08:58:18;;;;;;;16.63;11.80;;;35.90;52.50;;;37.00;33.66;95101.13;5080103;28;20694;-60
2023/07/24 09:00:45;;;;;;;22.80;11.63;;;36.00;52.00;;;37.05;32.85;95097.47;5077461;28;20619;-63
2023/07/24 09:03:12;;;;;;;18.10;12.02;;;36.20;51.30;;;37.11;32.59;95091.56;5078064;28;20261;-63
2023/07/24 09:05:39;;;;;;;18.67;11.07;;;36.20;50.70;;;37.23;32.19;95093.84;5077269;28;20224;-62
2023/07/24 09:08:07;;;;;;;14.70;10.85;;;36.30;50.40;;;37.21;31.57;95095.25;5076332;28;20645;-61
2023/07/24 09:10:34;;;;;;;23.42;11.25;;;36.30;49.40;;;37.14;32.79;95087.41;5072144;28;20227;-60
2023/07/24 09:13:03;;;;;;;13.13;10.02;;;36.30;50.40;;;37.24;32.69;95086.44;5078419;28;20675;-61
2023/07/24 09:15:40;;;;;;;18.30;10.77;;;36.30;50.40;;;37.27;32.16;95086.63;5071813;28;20239;-60
2023/07/24 09:18:07;;;;;;;30.30;12.18;;;36.40;50.00;;;37.39;32.04;95088.88;5076436;28;20200;-65
2023/07/24 09:20:40;;;;;;;18.58;10.05;;;36.40;49.70;;;37.57;31.38;95078.06;5072512;28;20216;-61
2023/07/24 09:23:07;;;;;;;25.55;11.60;;;36.60;49.30;;;37.73;31.81;95078.59;5078401;28;20200;-65
2023/07/24 09:25:35;;;;;;;23.48;11.00;;;36.70;49.30;;;37.89;31.43;95070.84;5076354;28;20288;-62
2023/07/24 09:28:11;;;;;;;18.52;10.25;;;36.90;49.40;;;38.09;30.87;95067.59;5074899;28;20201;-60
2023/07/24 09:30:38;;;;;;;16.08;10.88;;;37.10;48.60;;;38.30;30.89;95058.91;5074860;28;20311;-64
2023/07/24 09:33:05;;;;;;;17.98;11.85;;;37.30;48.30;;;38.48;30.83;95066.13;5076957;28;20999;-64
2023/07/24 09:35:33;;;;;;;24.70;10.77;;;37.50;48.40;;;38.58;30.96;95064.25;5080541;28;20734;-60
2023/07/24 09:38:04;;;;;;;22.02;10.70;;;37.60;47.90;;;38.46;30.38;95054.66;5074865;28;20208;-61
2023/07/24 09:40:40;;;;;;;22.88;10.90;;;37.60;47.00;;;38.26;30.07;95053.22;5080363;28;20307;-64
2023/07/24 09:43:19;;;;;;;23.67;11.70;;;37.40;46.80;;;38.17;30.61;95052.34;5076401;28;20541;-63
2023/07/24 09:45:48;;;;;;;26.17;10.88;;;37.30;47.40;;;38.20;30.41;95044.28;5076978;28;20284;-61
2023/07/24 09:48:16;;;;;;;29.60;12.23;;;37.30;47.20;;;38.31;30.47;95033.06;5075595;28;20204;-61
2023/07/24 09:50:47;;;;;;;23.35;12.30;;;37.40;47.20;;;38.43;30.31;95033.28;5078862;28;20234;-60
2023/07/24 09:53:21;;;;;;;22.20;11.77;;;37.40;47.20;;;38.54;30.01;95031.91;5080633;28;20203;-64
2023/07/24 09:55:52;;;;;;;18.35;9.98;;;37.60;47.00;;;38.63;30.15;95036.69;5075012;28;20331;-64
2023/07/24 09:58:22;;;;;;;23.23;11.13;;;37.70;46.50;;;38.70;29.93;95028.78;5080132;28;20573;-64
2023/07/24 10:00:50;;;;;;;31.40;11.15;;;37.80;46.70;;;38.81;30.09;95027.41;5075001;28;20319;-62
2023/07/24 10:03:17;;;;;;;23.80;12.27;;;37.80;46.60;;;38.90;30.35;95017.25;5078435;28;20280;-61
2023/07/24 10:05:45;;;;;;;18.98;10.73;;;37.90;46.30;;;38.98;29.74;95021.16;5076301;28;20535;-65
2023/07/24 10:08:12;;;;;;;23.88;11.48;;;38.00;45.90;;;39.01;29.35;95019.69;5071791;28;20204;-60
2023/07/24 10:10:40;;;;;;;27.70;12.38;;;38.10;45.70;;;39.05;29.93;95015.19;5076194;28;20368;-61
2023/07/24 10:13:10;;;;;;;35.55;12.15;;;38.10;46.30;;;39.06;30.04;95016.81;5073903;28;20199;-63